Taipei Control 台北區域管制席

Taipei Control METAR:
Taipei QNH:
2017/10/17 23:37 RCTP 172337Z 02019G30KT 9999 -RA FEW006 BKN009 BKN015 24/23 Q1013 WS ALL RWY NOSIG RMK A2993
Kaoshiung QNH:
2017/10/17 23:30 RCKH 172330Z 02005KT 5000 BR FEW015 27/24 Q1011 NOSIG RMK A2986

台北區域管制席-海峽席
站台狀態:

台北區域管制席-北部席
站台狀態:

台北區域管制席-西部席
站台狀態:

台北飛航服務區-掃描席(區管/近場)
站台狀態: